Sunday, May 27, 2018, 5:48 PM GMT
Back to Local

CYSJ, Saint John, N. B.

Location: , , Canada Lat: 45.333
Local Time: 5:48 PM GMT (17:48 GMT) Lon: -65.883
Time Zone: GMT Elev: 337 ft

Show me the last for .
Show Decoded

2018-05-27 17:00 METAR CYSJ 271700Z 10010G17KT 060V140 15SM SCT260 15/M03 A3029 RMK CI3 SLP263 =
2018-05-27 16:00 METAR CYSJ 271600Z 13012G18KT 090V160 15SM FEW260 14/M04 A3031 RMK CI2 SLP268 =
2018-05-27 15:00 METAR CYSJ 271500Z 11009KT 15SM FEW004 FEW240 13/00 A3031 RMK SF1CI1 SLP270 =
2018-05-27 14:00 METAR CYSJ 271400Z 09012G20KT 15SM FEW004 12/M01 A3031 RMK SF1 SLP269 =
2018-05-27 13:00 METAR CYSJ 271300Z 08013KT 15SM FEW004 11/01 A3030 RMK SF1 SLP265 =
2018-05-27 12:00 METAR CYSJ 271200Z 10010G17KT 15SM FEW004 10/02 A3029 RMK SF1 SLP262 =
2018-05-27 11:00 METAR CYSJ 271100Z 07008KT 15SM FEW004 07/03 A3027 RMK SF2 SLP256 =
2018-05-27 10:00 METAR CYSJ 271000Z 05003KT 15SM FEW250 04/03 A3028 RMK CI1 SLP258 =
2018-05-27 09:00 METAR CYSJ 270900Z 08004KT 15SM FEW002 SCT250 01/01 A3026 RMK SF1CI2 SLP252 =
2018-05-27 08:00 METAR CYSJ 270800Z VRB02KT 15SM MIFG FEW005 FEW250 01/00 A3023 RMK SF1CI1 SLP242
                 =
2018-05-27 07:00 METAR CYSJ 270700Z 06002KT 15SM FEW150 02/01 A3021 RMK AC1 SLP235 =
2018-05-27 06:14 METAR CYSJ 270614Z 04004KT 360V080 15SM SKC 02/02 A3019 RMK SLP227 =
2018-05-27 06:00 METAR CYSJ 270600Z 00000KT 15SM SKC 03/02 A3018 RMK SLP226 =
2018-05-27 05:00 METAR CYSJ 270500Z 09005KT 15SM FEW260 05/04 A3016 RMK CI1 SLP218 =
2018-05-27 04:00 METAR CYSJ 270400Z 10006KT 15SM FEW260 06/04 A3014 RMK CI2 SLP211 =
2018-05-27 03:00 METAR CYSJ 270300Z 08003KT 15SM FEW070 SCT260 06/04 A3011 RMK AC1CI3 SLP202 =
2018-05-27 02:00 METAR CYSJ 270200Z 10005KT 15SM FEW060 07/05 A3008 RMK SC1 SLP190 =
2018-05-27 01:00 METAR CYSJ 270100Z 12006KT 15SM FEW045 SCT070 09/06 A3004 RMK SC2AC1 PRESRR
                 SLP176 =
2018-05-27 00:00 METAR CYSJ 270000Z 05009KT 15SM SCT045 BKN120 OVC250 12/07 A2999 RMK SC4AC2CI2
                 SLP158 =
2018-05-26 23:00 METAR CYSJ 262300Z 09008KT 15SM SCT039 BKN250 12/08 A2994 RMK SC4CI3 PRESRR
                 SLP141 =
2018-05-26 22:00 METAR CYSJ 262200Z 10010KT 15SM FEW030 BKN280 15/10 A2988 RMK CU2CI4 PRESRR
                 SLP120 DENSITY ALT 500FT =
2018-05-26 21:00 METAR CYSJ 262100Z 01007KT 350V060 15SM FEW030 BKN280 18/10 A2983 RMK CU2CI5
                 SLP105 DENSITY ALT 900FT =
2018-05-26 20:00 METAR CYSJ 262000Z 01012KT 15SM FEW025 BKN280 18/11 A2980 RMK CU2CI5 SLP094
                 DENSITY ALT 900FT =
2018-05-26 19:00 METAR CYSJ 261900Z 02008G16KT 15SM SCT019 BKN270 17/12 A2977 RMK CU3CI4 SLP084
                 DENSITY ALT 900FT =
2018-05-26 18:31 METAR CYSJ 261831Z 03010KT 15SM SCT013 BKN270 16/12 A2976 RMK SC4CI3 SLP080
                 DENSITY ALT 800FT =
2018-05-26 18:00 METAR CYSJ 261800Z 36010G16KT 15SM BKN009 BKN250 15/12 A2975 RMK SC6CI1 SLP078
                 DENSITY ALT 700FT =

Support USWX by starting your Amazon purchase here.